Aérodrome :
LOGIN :

S'inscrire | Disclaimer

   EN    FR    IT 

 










Légende :    VFR   VFR Marginal   IFR   IFR Intensif   IFR Très Intensif
Visi : 
Plafond : 
>= 8 km
>= 3000ft
5 à 8 km
1000 à 3000 ft
1500m à 5 km
500 à 1000 ft
800 à 1500m
200 à 500 ft
< 800m
< 200 ft
Symboles :   Orages  Brouillard  Fortes neiges  Fortes précipitations  Vent > 20 kt
SIGMETs :   Divers  Orages  Givrage  Turbulence  Onde Orograph.  Cendres Volcan.






- Altitude de l'aérodrome : 646 ft
- Code IATA : VNO


EYVI - Vilnius int.

DERNIER METAR :
  • 281620Z 09003KT CAVOK 09/05 Q1029 NOSIG

METARs EXPIRÉS :
  • 281550Z 08004KT CAVOK 10/05 Q1029 NOSIG
  • 281520Z 09003KT 060V120 CAVOK 11/05 Q1029 NOSIG
  • 281450Z 10004KT CAVOK 12/05 Q1029 NOSIG
  • 281420Z 11004KT 080V160 CAVOK 12/05 Q1029 NOSIG
  • 281350Z 10005KT 080V140 CAVOK 12/05 Q1029 NOSIG

TAF TAF EYVI
Valide du 28 à 12h jusqu'au 29 à 12h UTC


281100Z 2812/2912 10006KT 9000 SCT030 BKN050
BECMG 2816/2818 SCT050
TEMPO 2821/2906 3000 MIFG BR SCT002
BECMG 2906/2908 BKN015



MET'MAP, la Météo Aéronautique d'un coup d'oeil ! - Copyright ORBIFLY Décembre 2007 - Disclaimer

ORBIFLY MET'MAP TEAM :

Programmation & Développement : Alexandra Zaïnal
Sur une idée originale de : Baudouin d'Aumeries
Assistance à la programmation : Marc-Olivier Méhu
Soutien technique & logistique : Manuel Goepfert

Contact : metmap@orbifly.com




SOURCES & CREDITS :

   NOAA